sensor_id;sensor_type;location;lat;lon;timestamp;pressure;altitude;pressure_sealevel;temperature;humidity
43707;BME280;61348;53.392;-6.248;2023-05-23T00:00:58;102297.53;;;12.65;62.89
43707;BME280;61348;53.392;-6.248;2023-05-23T00:03:25;102294.41;;;12.66;62.80
43707;BME280;61348;53.392;-6.248;2023-05-23T00:05:53;102288.84;;;12.66;62.94
43707;BME280;61348;53.392;-6.248;2023-05-23T00:08:22;102293.59;;;12.66;62.92
43707;BME280;61348;53.392;-6.248;2023-05-23T00:10:48;102290.47;;;12.59;63.16
43707;BME280;61348;53.392;-6.248;2023-05-23T00:13:15;102292.09;;;12.51;63.37
43707;BME280;61348;53.392;-6.248;2023-05-23T00:15:43;102284.88;;;12.50;63.45
43707;BME280;61348;53.392;-6.248;2023-05-23T00:18:10;102286.53;;;12.51;63.39
43707;BME280;61348;53.392;-6.248;2023-05-23T00:20:38;102290.28;;;12.47;63.48
43707;BME280;61348;53.392;-6.248;2023-05-23T00:23:08;102290.91;;;12.44;63.50
43707;BME280;61348;53.392;-6.248;2023-05-23T00:25:36;102301.19;;;12.43;63.53
43707;BME280;61348;53.392;-6.248;2023-05-23T00:28:03;102294.63;;;12.39;63.67
43707;BME280;61348;53.392;-6.248;2023-05-23T00:30:32;102296.91;;;12.37;64.00
43707;BME280;61348;53.392;-6.248;2023-05-23T00:33:00;102299.19;;;12.35;64.01
43707;BME280;61348;53.392;-6.248;2023-05-23T00:35:28;102295.94;;;12.33;64.21
43707;BME280;61348;53.392;-6.248;2023-05-23T00:37:55;102292.00;;;12.34;64.32
43707;BME280;61348;53.392;-6.248;2023-05-23T00:40:22;102290.88;;;12.35;64.26
43707;BME280;61348;53.392;-6.248;2023-05-23T00:42:49;102290.38;;;12.33;64.08
43707;BME280;61348;53.392;-6.248;2023-05-23T00:45:16;102292.47;;;12.28;64.33
43707;BME280;61348;53.392;-6.248;2023-05-23T00:47:44;102274.00;;;12.23;64.26
43707;BME280;61348;53.392;-6.248;2023-05-23T00:50:13;102279.53;;;12.23;64.47
43707;BME280;61348;53.392;-6.248;2023-05-23T00:52:44;102277.91;;;12.22;64.53
43707;BME280;61348;53.392;-6.248;2023-05-23T00:55:11;102281.81;;;12.21;64.70
43707;BME280;61348;53.392;-6.248;2023-05-23T00:57:39;102276.44;;;12.25;64.73
43707;BME280;61348;53.392;-6.248;2023-05-23T01:00:07;102276.25;;;12.21;64.85
43707;BME280;61348;53.392;-6.248;2023-05-23T01:02:53;102281.94;;;12.16;65.32
43707;BME280;61348;53.392;-6.248;2023-05-23T01:05:20;102274.44;;;12.16;65.06
43707;BME280;61348;53.392;-6.248;2023-05-23T01:07:51;102283.09;;;12.15;65.07
43707;BME280;61348;53.392;-6.248;2023-05-23T01:10:22;102285.97;;;12.10;65.44
43707;BME280;61348;53.392;-6.248;2023-05-23T01:15:45;102285.63;;;12.03;65.48
43707;BME280;61348;53.392;-6.248;2023-05-23T01:18:33;102284.44;;;11.95;65.82
43707;BME280;61348;53.392;-6.248;2023-05-23T01:21:16;102278.88;;;11.95;65.91
43707;BME280;61348;53.392;-6.248;2023-05-23T01:29:37;102283.63;;;11.95;66.12
43707;BME280;61348;53.392;-6.248;2023-05-23T01:32:08;102282.16;;;11.97;65.83
43707;BME280;61348;53.392;-6.248;2023-05-23T01:34:38;102292.97;;;11.99;66.16
43707;BME280;61348;53.392;-6.248;2023-05-23T01:37:10;102291.81;;;12.00;66.20
43707;BME280;61348;53.392;-6.248;2023-05-23T01:39:37;102291.50;;;12.01;66.18
43707;BME280;61348;53.392;-6.248;2023-05-23T01:42:05;102296.53;;;11.99;65.98
43707;BME280;61348;53.392;-6.248;2023-05-23T01:44:33;102294.09;;;11.98;66.36
43707;BME280;61348;53.392;-6.248;2023-05-23T01:47:04;102294.72;;;11.95;66.56
43707;BME280;61348;53.392;-6.248;2023-05-23T01:49:33;102295.88;;;11.94;66.68
43707;BME280;61348;53.392;-6.248;2023-05-23T01:52:01;102303.66;;;11.92;66.69
43707;BME280;61348;53.392;-6.248;2023-05-23T01:54:28;102299.28;;;11.91;66.77
43707;BME280;61348;53.392;-6.248;2023-05-23T01:56:56;102296.16;;;11.92;66.87
43707;BME280;61348;53.392;-6.248;2023-05-23T01:59:23;102304.00;;;11.90;66.91
43707;BME280;61348;53.392;-6.248;2023-05-23T02:01:50;102299.56;;;11.89;67.11
43707;BME280;61348;53.392;-6.248;2023-05-23T02:04:17;102302.34;;;11.89;67.29
43707;BME280;61348;53.392;-6.248;2023-05-23T02:06:44;102288.81;;;11.88;67.11
43707;BME280;61348;53.392;-6.248;2023-05-23T02:09:12;102293.84;;;11.86;67.34
43707;BME280;61348;53.392;-6.248;2023-05-23T02:11:39;102307.53;;;11.82;67.44
43707;BME280;61348;53.392;-6.248;2023-05-23T02:14:06;102298.38;;;11.82;67.51
43707;BME280;61348;53.392;-6.248;2023-05-23T02:16:33;102304.25;;;11.80;67.39
43707;BME280;61348;53.392;-6.248;2023-05-23T02:19:02;102297.38;;;11.78;67.60
43707;BME280;61348;53.392;-6.248;2023-05-23T02:21:29;102295.41;;;11.78;67.66
43707;BME280;61348;53.392;-6.248;2023-05-23T02:24:00;102292.47;;;11.75;67.58
43707;BME280;61348;53.392;-6.248;2023-05-23T02:26:27;102299.13;;;11.74;67.65
43707;BME280;61348;53.392;-6.248;2023-05-23T02:28:54;102295.88;;;11.72;67.65
43707;BME280;61348;53.392;-6.248;2023-05-23T02:31:20;102304.19;;;11.72;67.73
43707;BME280;61348;53.392;-6.248;2023-05-23T02:33:47;102305.03;;;11.72;68.04
43707;BME280;61348;53.392;-6.248;2023-05-23T02:36:14;102301.63;;;11.75;67.62
43707;BME280;61348;53.392;-6.248;2023-05-23T02:38:41;102304.69;;;11.74;67.65
43707;BME280;61348;53.392;-6.248;2023-05-23T02:41:08;102304.06;;;11.77;67.53
43707;BME280;61348;53.392;-6.248;2023-05-23T02:43:34;102298.88;;;11.84;67.26
43707;BME280;61348;53.392;-6.248;2023-05-23T02:46:01;102302.31;;;11.81;67.25
43707;BME280;61348;53.392;-6.248;2023-05-23T02:48:28;102308.16;;;11.79;67.32
43707;BME280;61348;53.392;-6.248;2023-05-23T02:50:55;102304.06;;;11.77;67.32
43707;BME280;61348;53.392;-6.248;2023-05-23T02:53:22;102301.91;;;11.74;67.44
43707;BME280;61348;53.392;-6.248;2023-05-23T02:55:49;102310.25;;;11.74;67.52
43707;BME280;61348;53.392;-6.248;2023-05-23T02:58:16;102307.97;;;11.76;67.63
43707;BME280;61348;53.392;-6.248;2023-05-23T03:00:42;102311.25;;;11.78;67.40
43707;BME280;61348;53.392;-6.248;2023-05-23T03:03:09;102307.34;;;11.79;67.31
43707;BME280;61348;53.392;-6.248;2023-05-23T03:05:37;102315.16;;;11.77;67.31
43707;BME280;61348;53.392;-6.248;2023-05-23T03:08:04;102308.97;;;11.80;67.38
43707;BME280;61348;53.392;-6.248;2023-05-23T03:10:32;102308.78;;;11.76;67.35
43707;BME280;61348;53.392;-6.248;2023-05-23T03:12:59;102310.72;;;11.76;67.28
43707;BME280;61348;53.392;-6.248;2023-05-23T03:15:25;102315.06;;;11.68;67.68
43707;BME280;61348;53.392;-6.248;2023-05-23T03:17:54;102312.91;;;11.65;67.65
43707;BME280;61348;53.392;-6.248;2023-05-23T03:20:21;102317.00;;;11.68;67.79
43707;BME280;61348;53.392;-6.248;2023-05-23T03:22:48;102311.47;;;11.68;67.65
43707;BME280;61348;53.392;-6.248;2023-05-23T03:25:14;102312.91;;;11.65;67.90
43707;BME280;61348;53.392;-6.248;2023-05-23T03:27:42;102309.84;;;11.67;67.80
43707;BME280;61348;53.392;-6.248;2023-05-23T03:30:09;102306.84;;;11.63;67.80
43707;BME280;61348;53.392;-6.248;2023-05-23T03:32:36;102303.09;;;11.59;68.08
43707;BME280;61348;53.392;-6.248;2023-05-23T03:35:03;102307.34;;;11.65;68.03
43707;BME280;61348;53.392;-6.248;2023-05-23T03:37:30;102303.13;;;11.68;67.79
43707;BME280;61348;53.392;-6.248;2023-05-23T03:39:57;102309.00;;;11.66;67.88
43707;BME280;61348;53.392;-6.248;2023-05-23T03:42:24;102313.13;;;11.69;67.72
43707;BME280;61348;53.392;-6.248;2023-05-23T03:44:50;102310.13;;;11.65;67.72
43707;BME280;61348;53.392;-6.248;2023-05-23T03:47:17;102305.53;;;11.60;67.82
43707;BME280;61348;53.392;-6.248;2023-05-23T03:49:44;102293.75;;;11.55;67.99
43707;BME280;61348;53.392;-6.248;2023-05-23T03:52:11;102290.13;;;11.54;68.25
43707;BME280;61348;53.392;-6.248;2023-05-23T03:54:38;102292.41;;;11.52;68.30
43707;BME280;61348;53.392;-6.248;2023-05-23T03:57:05;102294.50;;;11.47;68.36
43707;BME280;61348;53.392;-6.248;2023-05-23T03:59:32;102295.50;;;11.51;68.27
43707;BME280;61348;53.392;-6.248;2023-05-23T04:01:59;102292.25;;;11.49;68.36
43707;BME280;61348;53.392;-6.248;2023-05-23T04:04:28;102288.44;;;11.45;68.56
43707;BME280;61348;53.392;-6.248;2023-05-23T04:06:55;102285.16;;;11.43;68.63
43707;BME280;61348;53.392;-6.248;2023-05-23T04:09:22;102291.84;;;11.42;68.70
43707;BME280;61348;53.392;-6.248;2023-05-23T04:11:48;102294.94;;;11.40;68.83
43707;BME280;61348;53.392;-6.248;2023-05-23T04:14:15;102278.47;;;11.44;68.83
43707;BME280;61348;53.392;-6.248;2023-05-23T04:16:42;102280.81;;;11.50;68.75
43707;BME280;61348;53.392;-6.248;2023-05-23T04:19:10;102283.59;;;11.50;68.61
43707;BME280;61348;53.392;-6.248;2023-05-23T04:21:37;102292.03;;;11.45;68.66
43707;BME280;61348;53.392;-6.248;2023-05-23T04:24:04;102280.94;;;11.45;68.73
43707;BME280;61348;53.392;-6.248;2023-05-23T04:26:31;102283.22;;;11.43;68.88
43707;BME280;61348;53.392;-6.248;2023-05-23T04:28:59;102278.28;;;11.40;69.00
43707;BME280;61348;53.392;-6.248;2023-05-23T04:31:27;102282.69;;;11.41;68.98
43707;BME280;61348;53.392;-6.248;2023-05-23T04:33:54;102286.28;;;11.42;69.07
43707;BME280;61348;53.392;-6.248;2023-05-23T04:36:21;102284.84;;;11.44;68.76
43707;BME280;61348;53.392;-6.248;2023-05-23T04:38:49;102282.56;;;11.46;68.86
43707;BME280;61348;53.392;-6.248;2023-05-23T04:41:15;102282.91;;;11.45;68.82
43707;BME280;61348;53.392;-6.248;2023-05-23T04:43:42;102276.84;;;11.43;68.90
43707;BME280;61348;53.392;-6.248;2023-05-23T04:46:10;102275.69;;;11.44;69.01
43707;BME280;61348;53.392;-6.248;2023-05-23T04:48:36;102281.91;;;11.41;68.74
43707;BME280;61348;53.392;-6.248;2023-05-23T04:51:04;102285.16;;;11.43;69.13
43707;BME280;61348;53.392;-6.248;2023-05-23T04:53:34;102279.28;;;11.44;69.14
43707;BME280;61348;53.392;-6.248;2023-05-23T04:56:02;102289.41;;;11.40;69.06
43707;BME280;61348;53.392;-6.248;2023-05-23T04:58:29;102286.50;;;11.45;69.23
43707;BME280;61348;53.392;-6.248;2023-05-23T05:00:57;102291.72;;;11.47;69.07
43707;BME280;61348;53.392;-6.248;2023-05-23T05:03:24;102288.94;;;11.47;69.17
43707;BME280;61348;53.392;-6.248;2023-05-23T05:05:52;102290.88;;;11.46;69.20
43707;BME280;61348;53.392;-6.248;2023-05-23T05:08:19;102298.41;;;11.46;69.37
43707;BME280;61348;53.392;-6.248;2023-05-23T05:10:46;102290.88;;;11.46;69.46
43707;BME280;61348;53.392;-6.248;2023-05-23T05:13:13;102296.13;;;11.48;69.52
43707;BME280;61348;53.392;-6.248;2023-05-23T05:15:39;102289.78;;;11.47;69.56
43707;BME280;61348;53.392;-6.248;2023-05-23T05:18:06;102303.34;;;11.49;69.67
43707;BME280;61348;53.392;-6.248;2023-05-23T05:20:33;102306.91;;;11.49;69.59
43707;BME280;61348;53.392;-6.248;2023-05-23T05:23:00;102300.25;;;11.50;69.69
43707;BME280;61348;53.392;-6.248;2023-05-23T05:25:27;102298.59;;;11.49;69.82
43707;BME280;61348;53.392;-6.248;2023-05-23T05:28:04;102300.13;;;11.55;69.62
43707;BME280;61348;53.392;-6.248;2023-05-23T05:30:32;102300.63;;;11.57;69.53
43707;BME280;61348;53.392;-6.248;2023-05-23T05:33:04;102301.25;;;11.54;69.48
43707;BME280;61348;53.392;-6.248;2023-05-23T05:35:35;102306.00;;;11.54;69.77
43707;BME280;61348;53.392;-6.248;2023-05-23T05:38:03;102303.38;;;11.57;69.79
43707;BME280;61348;53.392;-6.248;2023-05-23T05:40:31;102292.16;;;11.62;69.71
43707;BME280;61348;53.392;-6.248;2023-05-23T05:42:58;102291.53;;;11.66;69.71
43707;BME280;61348;53.392;-6.248;2023-05-23T05:45:25;102287.94;;;11.65;69.47
43707;BME280;61348;53.392;-6.248;2023-05-23T05:47:52;102290.94;;;11.69;69.85
43707;BME280;61348;53.392;-6.248;2023-05-23T05:50:19;102281.66;;;11.73;69.80
43707;BME280;61348;53.392;-6.248;2023-05-23T05:52:45;102291.31;;;11.76;69.72
43707;BME280;61348;53.392;-6.248;2023-05-23T05:55:12;102285.97;;;11.79;69.68
43707;BME280;61348;53.392;-6.248;2023-05-23T05:57:39;102290.06;;;11.82;70.02
43707;BME280;61348;53.392;-6.248;2023-05-23T06:00:09;102284.38;;;11.87;70.02
43707;BME280;61348;53.392;-6.248;2023-05-23T06:02:41;102282.44;;;11.87;70.17
43707;BME280;61348;53.392;-6.248;2023-05-23T06:05:09;102277.50;;;11.84;70.07
43707;BME280;61348;53.392;-6.248;2023-05-23T06:07:38;102282.44;;;11.87;70.04
43707;BME280;61348;53.392;-6.248;2023-05-23T06:10:06;102282.00;;;11.94;69.96
43707;BME280;61348;53.392;-6.248;2023-05-23T06:12:34;102284.00;;;12.02;69.92
43707;BME280;61348;53.392;-6.248;2023-05-23T06:15:01;102285.81;;;12.06;69.83
43707;BME280;61348;53.392;-6.248;2023-05-23T06:17:28;102284.22;;;12.14;69.80
43707;BME280;61348;53.392;-6.248;2023-05-23T06:19:54;102290.28;;;12.16;69.80
43707;BME280;61348;53.392;-6.248;2023-05-23T06:22:24;102288.81;;;12.18;69.55
43707;BME280;61348;53.392;-6.248;2023-05-23T06:24:51;102289.19;;;12.26;69.63
43707;BME280;61348;53.392;-6.248;2023-05-23T06:27:18;102289.34;;;12.29;69.57
43707;BME280;61348;53.392;-6.248;2023-05-23T06:29:45;102294.28;;;12.32;69.35
43707;BME280;61348;53.392;-6.248;2023-05-23T06:32:11;102305.38;;;12.32;69.39
43707;BME280;61348;53.392;-6.248;2023-05-23T06:34:38;102301.16;;;12.35;69.53
43707;BME280;61348;53.392;-6.248;2023-05-23T06:37:05;102304.63;;;12.40;69.66
43707;BME280;61348;53.392;-6.248;2023-05-23T06:39:32;102308.41;;;12.44;69.56
43707;BME280;61348;53.392;-6.248;2023-05-23T06:41:59;102311.03;;;12.49;69.52
43707;BME280;61348;53.392;-6.248;2023-05-23T06:44:27;102310.38;;;12.52;69.37
43707;BME280;61348;53.392;-6.248;2023-05-23T06:46:54;102299.94;;;12.49;69.54
43707;BME280;61348;53.392;-6.248;2023-05-23T06:49:23;102312.50;;;12.55;69.69
43707;BME280;61348;53.392;-6.248;2023-05-23T06:51:51;102312.38;;;12.60;69.58
43707;BME280;61348;53.392;-6.248;2023-05-23T06:54:18;102312.25;;;12.65;69.47
43707;BME280;61348;53.392;-6.248;2023-05-23T06:56:45;102305.53;;;12.66;69.39
43707;BME280;61348;53.392;-6.248;2023-05-23T06:59:12;102294.28;;;12.71;69.17
43707;BME280;61348;53.392;-6.248;2023-05-23T07:01:39;102306.69;;;12.74;69.18
43707;BME280;61348;53.392;-6.248;2023-05-23T07:04:06;102297.09;;;12.80;69.15
43707;BME280;61348;53.392;-6.248;2023-05-23T07:06:34;102304.44;;;12.76;69.12
43707;BME280;61348;53.392;-6.248;2023-05-23T07:09:02;102301.00;;;12.79;69.21
43707;BME280;61348;53.392;-6.248;2023-05-23T07:11:29;102294.97;;;12.86;69.12
43707;BME280;61348;53.392;-6.248;2023-05-23T07:13:57;102304.47;;;12.93;69.32
43707;BME280;61348;53.392;-6.248;2023-05-23T07:16:24;102313.50;;;12.99;69.18
43707;BME280;61348;53.392;-6.248;2023-05-23T07:18:51;102312.19;;;13.05;69.23
43707;BME280;61348;53.392;-6.248;2023-05-23T07:21:18;102302.25;;;13.12;69.22
43707;BME280;61348;53.392;-6.248;2023-05-23T07:23:45;102307.34;;;13.19;69.00
43707;BME280;61348;53.392;-6.248;2023-05-23T07:26:12;102306.53;;;13.27;68.92
43707;BME280;61348;53.392;-6.248;2023-05-23T07:28:39;102307.84;;;13.38;68.94
43707;BME280;61348;53.392;-6.248;2023-05-23T07:31:06;102307.38;;;13.45;68.75
43707;BME280;61348;53.392;-6.248;2023-05-23T07:33:35;102312.13;;;13.53;68.38
43707;BME280;61348;53.392;-6.248;2023-05-23T07:36:02;102309.50;;;13.56;68.46
43707;BME280;61348;53.392;-6.248;2023-05-23T07:38:28;102294.44;;;13.57;68.45
43707;BME280;61348;53.392;-6.248;2023-05-23T07:40:55;102292.47;;;13.58;68.10
43707;BME280;61348;53.392;-6.248;2023-05-23T07:43:36;102296.88;;;13.59;68.16
43707;BME280;61348;53.392;-6.248;2023-05-23T07:46:03;102301.63;;;13.67;68.30
43707;BME280;61348;53.392;-6.248;2023-05-23T07:48:30;102301.13;;;13.90;68.94
43707;BME280;61348;53.392;-6.248;2023-05-23T07:50:57;102302.03;;;14.29;69.77
43707;BME280;61348;53.392;-6.248;2023-05-23T07:53:24;102309.72;;;14.78;70.62
43707;BME280;61348;53.392;-6.248;2023-05-23T07:55:52;102321.31;;;15.39;71.17
43707;BME280;61348;53.392;-6.248;2023-05-23T07:58:18;102328.53;;;16.02;70.97
43707;BME280;61348;53.392;-6.248;2023-05-23T08:00:45;102331.28;;;16.67;70.08
43707;BME280;61348;53.392;-6.248;2023-05-23T08:03:12;102332.53;;;17.30;68.78
43707;BME280;61348;53.392;-6.248;2023-05-23T08:05:39;102331.53;;;18.02;66.75
43707;BME280;61348;53.392;-6.248;2023-05-23T08:08:06;102327.84;;;18.57;64.52
43707;BME280;61348;53.392;-6.248;2023-05-23T08:10:33;102332.72;;;18.92;62.88
43707;BME280;61348;53.392;-6.248;2023-05-23T08:12:59;102342.94;;;19.00;61.30
43707;BME280;61348;53.392;-6.248;2023-05-23T08:15:30;102342.31;;;18.91;59.76
43707;BME280;61348;53.392;-6.248;2023-05-23T08:17:56;102337.84;;;19.21;59.27
43707;BME280;61348;53.392;-6.248;2023-05-23T08:20:24;102329.66;;;19.66;57.93
43707;BME280;61348;53.392;-6.248;2023-05-23T08:23:00;102333.78;;;20.30;56.78
43707;BME280;61348;53.392;-6.248;2023-05-23T08:25:27;102337.56;;;20.60;55.28
43707;BME280;61348;53.392;-6.248;2023-05-23T08:27:56;102338.25;;;20.76;54.04
43707;BME280;61348;53.392;-6.248;2023-05-23T08:30:27;102331.22;;;21.12;53.53
43707;BME280;61348;53.392;-6.248;2023-05-23T08:32:55;102321.28;;;21.48;51.75
43707;BME280;61348;53.392;-6.248;2023-05-23T08:35:22;102324.28;;;21.62;51.23
43707;BME280;61348;53.392;-6.248;2023-05-23T08:37:50;102328.91;;;21.77;49.89
43707;BME280;61348;53.392;-6.248;2023-05-23T08:40:19;102330.34;;;21.64;49.14
43707;BME280;61348;53.392;-6.248;2023-05-23T08:42:50;102328.06;;;21.43;48.29
43707;BME280;61348;53.392;-6.248;2023-05-23T08:45:17;102327.88;;;21.59;47.52
43707;BME280;61348;53.392;-6.248;2023-05-23T08:47:45;102332.94;;;21.76;46.96
43707;BME280;61348;53.392;-6.248;2023-05-23T08:50:15;102329.03;;;21.84;45.78
43707;BME280;61348;53.392;-6.248;2023-05-23T08:52:56;102329.91;;;21.88;45.96
43707;BME280;61348;53.392;-6.248;2023-05-23T08:55:24;102337.00;;;21.78;45.13
43707;BME280;61348;53.392;-6.248;2023-05-23T08:58:02;102332.88;;;21.72;45.23
43707;BME280;61348;53.392;-6.248;2023-05-23T09:00:29;102324.28;;;21.62;44.42
43707;BME280;61348;53.392;-6.248;2023-05-23T09:02:57;102327.44;;;21.57;44.37
43707;BME280;61348;53.392;-6.248;2023-05-23T09:05:25;102322.66;;;21.61;43.89
43707;BME280;61348;53.392;-6.248;2023-05-23T09:07:52;102324.03;;;21.74;43.30
43707;BME280;61348;53.392;-6.248;2023-05-23T09:10:19;102317.69;;;21.80;43.39
43707;BME280;61348;53.392;-6.248;2023-05-23T09:12:46;102312.88;;;21.84;42.78
43707;BME280;61348;53.392;-6.248;2023-05-23T09:15:14;102314.75;;;22.00;42.32
43707;BME280;61348;53.392;-6.248;2023-05-23T09:17:43;102304.56;;;22.28;41.64
43707;BME280;61348;53.392;-6.248;2023-05-23T09:20:15;102309.91;;;22.40;41.85
43707;BME280;61348;53.392;-6.248;2023-05-23T09:22:47;102312.53;;;22.60;41.57
43707;BME280;61348;53.392;-6.248;2023-05-23T09:25:14;102303.53;;;22.91;40.97
43707;BME280;61348;53.392;-6.248;2023-05-23T09:27:41;102308.00;;;22.92;40.83
43707;BME280;61348;53.392;-6.248;2023-05-23T09:30:13;102305.13;;;22.88;40.56
43707;BME280;61348;53.392;-6.248;2023-05-23T09:32:40;102307.53;;;22.86;40.14
43707;BME280;61348;53.392;-6.248;2023-05-23T09:35:08;102308.78;;;22.89;39.78
43707;BME280;61348;53.392;-6.248;2023-05-23T09:37:44;102306.06;;;23.03;39.85
43707;BME280;61348;53.392;-6.248;2023-05-23T09:40:14;102301.06;;;23.37;39.57
43707;BME280;61348;53.392;-6.248;2023-05-23T09:42:46;102299.16;;;23.58;39.34
43707;BME280;61348;53.392;-6.248;2023-05-23T09:45:14;102299.16;;;23.66;38.97
43707;BME280;61348;53.392;-6.248;2023-05-23T09:47:51;102296.47;;;24.01;38.88
43707;BME280;61348;53.392;-6.248;2023-05-23T09:50:22;102292.91;;;24.11;37.96
43707;BME280;61348;53.392;-6.248;2023-05-23T09:52:49;102295.69;;;24.04;37.97
43707;BME280;61348;53.392;-6.248;2023-05-23T09:55:16;102287.94;;;23.87;37.58
43707;BME280;61348;53.392;-6.248;2023-05-23T09:57:44;102290.66;;;23.62;38.02
43707;BME280;61348;53.392;-6.248;2023-05-23T10:00:16;102285.72;;;23.41;38.32
43707;BME280;61348;53.392;-6.248;2023-05-23T10:03:09;102289.00;;;22.89;38.89
43707;BME280;61348;53.392;-6.248;2023-05-23T10:05:56;102289.13;;;22.56;39.30
43707;BME280;61348;53.392;-6.248;2023-05-23T10:08:35;102291.44;;;22.47;39.84
43707;BME280;61348;53.392;-6.248;2023-05-23T10:13:51;102275.44;;;21.51;41.12
43707;BME280;61348;53.392;-6.248;2023-05-23T10:16:37;102286.75;;;21.24;40.86
43707;BME280;61348;53.392;-6.248;2023-05-23T10:19:12;102292.47;;;21.32;40.94
43707;BME280;61348;53.392;-6.248;2023-05-23T10:21:49;102281.94;;;21.55;41.25
43707;BME280;61348;53.392;-6.248;2023-05-23T10:24:16;102292.94;;;21.67;41.20
43707;BME280;61348;53.392;-6.248;2023-05-23T10:26:44;102289.06;;;21.78;40.67
43707;BME280;61348;53.392;-6.248;2023-05-23T10:29:12;102286.19;;;21.75;40.54
43707;BME280;61348;53.392;-6.248;2023-05-23T10:31:39;102287.25;;;21.93;40.84
43707;BME280;61348;53.392;-6.248;2023-05-23T10:36:51;102274.31;;;21.89;40.83
43707;BME280;61348;53.392;-6.248;2023-05-23T10:42:44;102275.97;;;21.93;41.34
43707;BME280;61348;53.392;-6.248;2023-05-23T10:45:17;102274.44;;;21.99;41.14
43707;BME280;61348;53.392;-6.248;2023-05-23T10:47:48;102268.38;;;21.97;40.94
43707;BME280;61348;53.392;-6.248;2023-05-23T10:50:32;102253.22;;;21.79;41.19
43707;BME280;61348;53.392;-6.248;2023-05-23T10:53:01;102256.22;;;21.60;41.70
43707;BME280;61348;53.392;-6.248;2023-05-23T10:55:32;102259.66;;;21.46;41.56
43707;BME280;61348;53.392;-6.248;2023-05-23T10:58:17;102265.25;;;21.43;41.21
43707;BME280;61348;53.392;-6.248;2023-05-23T11:00:55;102277.19;;;21.33;41.61
43707;BME280;61348;53.392;-6.248;2023-05-23T11:03:29;102268.44;;;21.11;41.04
43707;BME280;61348;53.392;-6.248;2023-05-23T11:06:00;102271.72;;;20.91;41.62
43707;BME280;61348;53.392;-6.248;2023-05-23T11:08:35;102269.56;;;20.81;41.31
43707;BME280;61348;53.392;-6.248;2023-05-23T11:11:14;102271.53;;;20.54;41.89
43707;BME280;61348;53.392;-6.248;2023-05-23T11:13:56;102259.97;;;20.36;41.72
43707;BME280;61348;53.392;-6.248;2023-05-23T11:16:27;102253.41;;;20.29;42.02
43707;BME280;61348;53.392;-6.248;2023-05-23T11:21:49;102250.69;;;20.13;43.08
43707;BME280;61348;53.392;-6.248;2023-05-23T11:24:16;102253.41;;;20.10;43.67
43707;BME280;61348;53.392;-6.248;2023-05-23T11:26:57;102249.34;;;20.07;43.54
43707;BME280;61348;53.392;-6.248;2023-05-23T11:29:27;102247.97;;;19.97;43.56
43707;BME280;61348;53.392;-6.248;2023-05-23T11:31:58;102244.53;;;19.85;44.12
43707;BME280;61348;53.392;-6.248;2023-05-23T11:34:25;102243.09;;;19.94;44.04
43707;BME280;61348;53.392;-6.248;2023-05-23T11:36:53;102238.81;;;20.00;44.02
43707;BME280;61348;53.392;-6.248;2023-05-23T11:39:20;102241.69;;;20.04;44.20
43707;BME280;61348;53.392;-6.248;2023-05-23T11:42:05;102242.16;;;20.10;43.94
43707;BME280;61348;53.392;-6.248;2023-05-23T11:44:32;102244.50;;;20.04;44.51
43707;BME280;61348;53.392;-6.248;2023-05-23T11:47:05;102246.72;;;20.18;44.60
43707;BME280;61348;53.392;-6.248;2023-05-23T11:49:37;102235.53;;;20.40;44.56
43707;BME280;61348;53.392;-6.248;2023-05-23T11:52:05;102227.59;;;20.46;44.27
43707;BME280;61348;53.392;-6.248;2023-05-23T11:54:33;102236.88;;;20.50;44.27
43707;BME280;61348;53.392;-6.248;2023-05-23T11:57:00;102247.47;;;20.56;43.93
43707;BME280;61348;53.392;-6.248;2023-05-23T11:59:28;102248.28;;;20.57;43.41
43707;BME280;61348;53.392;-6.248;2023-05-23T12:01:55;102241.13;;;20.63;43.71
43707;BME280;61348;53.392;-6.248;2023-05-23T12:04:24;102234.84;;;20.73;43.53
43707;BME280;61348;53.392;-6.248;2023-05-23T12:06:53;102236.56;;;20.81;43.32
43707;BME280;61348;53.392;-6.248;2023-05-23T12:09:20;102227.84;;;20.86;42.94
43707;BME280;61348;53.392;-6.248;2023-05-23T12:11:47;102225.38;;;20.85;42.79
43707;BME280;61348;53.392;-6.248;2023-05-23T12:14:16;102220.56;;;20.85;43.27
43707;BME280;61348;53.392;-6.248;2023-05-23T12:16:44;102233.81;;;20.85;43.33
43707;BME280;61348;53.392;-6.248;2023-05-23T12:19:13;102231.28;;;20.76;42.96
43707;BME280;61348;53.392;-6.248;2023-05-23T12:21:48;102226.72;;;20.68;43.19
43707;BME280;61348;53.392;-6.248;2023-05-23T12:27:00;102222.19;;;20.86;43.85
43707;BME280;61348;53.392;-6.248;2023-05-23T12:29:31;102222.44;;;21.04;43.46
43707;BME280;61348;53.392;-6.248;2023-05-23T12:32:02;102220.16;;;21.09;43.55
43707;BME280;61348;53.392;-6.248;2023-05-23T12:34:29;102221.53;;;21.22;42.96
43707;BME280;61348;53.392;-6.248;2023-05-23T12:36:57;102219.53;;;21.23;42.55
43707;BME280;61348;53.392;-6.248;2023-05-23T12:39:44;102214.25;;;21.21;43.18
43707;BME280;61348;53.392;-6.248;2023-05-23T12:42:11;102209.94;;;21.28;43.34
43707;BME280;61348;53.392;-6.248;2023-05-23T12:44:40;102202.44;;;21.42;42.55
43707;BME280;61348;53.392;-6.248;2023-05-23T12:47:07;102210.56;;;21.47;42.63
43707;BME280;61348;53.392;-6.248;2023-05-23T12:49:37;102199.72;;;21.49;41.87
43707;BME280;61348;53.392;-6.248;2023-05-23T12:52:04;102194.56;;;21.55;41.88
43707;BME280;61348;53.392;-6.248;2023-05-23T12:54:31;102203.84;;;21.59;41.71
43707;BME280;61348;53.392;-6.248;2023-05-23T12:56:58;102194.91;;;21.50;41.97
43707;BME280;61348;53.392;-6.248;2023-05-23T12:59:25;102199.84;;;21.60;41.82
43707;BME280;61348;53.392;-6.248;2023-05-23T13:01:52;102192.22;;;21.60;41.85
43707;BME280;61348;53.392;-6.248;2023-05-23T13:04:19;102199.50;;;21.65;41.40
43707;BME280;61348;53.392;-6.248;2023-05-23T13:06:46;102195.09;;;21.67;41.55
43707;BME280;61348;53.392;-6.248;2023-05-23T13:09:13;102203.09;;;21.62;41.97
43707;BME280;61348;53.392;-6.248;2023-05-23T13:11:40;102201.84;;;21.59;42.50